Time;durP1;ratioP1;P1;durP2;ratioP2;P2;SDS_P1;SDS_P2;PMS_P1;PMS_P2;Temp;Humidity;BMP_temperature;BMP_pressure;BME280_temperature;BME280_humidity;BME280_pressure;Samples;Min_cycle;Max_cycle;Signal;HPM_P1;HPM_P2
2023/01/17 00:15:18;;;;;;;;;;;;;;;;;;;;;
2023/01/17 01:35:26;;;;;;;0.00;0.00;;;3.60;99.90;;;;;;6142690;23;20017;-88
2023/01/17 01:38:28;;;;;;;0.00;0.00;;;3.70;99.90;;;;;;6115380;23;20505;-89
2023/01/17 01:41:26;;;;;;;;;;;;;;;;;;;;;
2023/01/17 01:44:10;;;;;;;;;;;;;;;;;;;;;
2023/01/17 01:46:58;;;;;;;0.00;0.00;;;3.90;99.90;;;;;;6139163;23;20252;-89
2023/01/17 01:49:55;;;;;;;;;;;;;;;;;;;;;
2023/01/17 01:52:33;;;;;;;0.00;0.00;;;3.40;99.90;;;;;;6138931;23;20009;-89
2023/01/17 01:55:44;;;;;;;0.00;0.00;;;4.10;99.90;;;;;;6136508;23;20052;-88
2023/01/17 01:58:21;;;;;;;0.00;0.00;;;3.40;99.90;;;;;;6125305;23;20044;-88
2023/01/17 02:01:00;;;;;;;;;;;;;;;;;;;;;
2023/01/17 02:03:55;;;;;;;0.00;0.00;;;3.40;99.90;;;;;;6139287;23;20040;-88
2023/01/17 02:06:51;;;;;;;;;;;;;;;;;;;;;
2023/01/17 02:09:53;;;;;;;;;;;;;;;;;;;;;
2023/01/17 02:15:31;;;;;;;0.00;0.00;;;3.40;99.90;;;;;;6146004;23;20017;-89
2023/01/17 02:18:27;;;;;;;0.00;0.00;;;3.90;99.90;;;;;;6136171;23;20051;-88
2023/01/17 02:21:25;;;;;;;0.00;0.00;;;3.40;99.90;;;;;;6162274;23;20353;-88
2023/01/17 02:24:20;;;;;;;0.00;0.00;;;3.40;99.90;;;;;;6136614;23;20494;-88
2023/01/17 02:26:57;;;;;;;0.00;0.00;;;3.30;99.90;;;;;;6136335;23;20071;-87
2023/01/17 02:29:41;;;;;;;0.00;0.00;;;3.30;99.90;;;;;;6136750;23;20017;-87
2023/01/17 02:32:15;;;;;;;0.00;0.00;;;3.20;99.90;;;;;;6135413;23;20021;-86
2023/01/17 02:34:55;;;;;;;0.00;0.00;;;3.70;99.90;;;;;;6160427;23;20019;-86
2023/01/17 02:37:49;;;;;;;0.00;0.00;;;3.00;99.90;;;;;;6136250;23;20263;-86
2023/01/17 02:40:27;;;;;;;0.00;0.00;;;2.90;99.90;;;;;;6137842;23;20025;-86
2023/01/17 02:43:08;;;;;;;0.00;0.00;;;2.90;99.90;;;;;;6162467;23;20370;-86
2023/01/17 02:45:44;;;;;;;0.00;0.00;;;3.40;99.90;;;;;;6137956;23;20323;-86
2023/01/17 02:48:24;;;;;;;0.00;0.00;;;3.00;99.90;;;;;;6162242;23;20498;-86
2023/01/17 02:51:38;;;;;;;0.00;0.00;;;2.90;99.90;;;;;;6137643;23;20510;-86
2023/01/17 02:54:35;;;;;;;0.00;0.00;;;3.00;99.90;;;;;;6016770;23;20011;-86
2023/01/17 02:57:28;;;;;;;0.00;0.00;;;3.00;99.90;;;;;;6020043;23;20059;-86
2023/01/17 03:00:32;;;;;;;0.00;0.00;;;3.00;99.90;;;;;;6138608;23;20009;-86
2023/01/17 03:03:32;;;;;;;;;;;;;;;;;;;;;
2023/01/17 03:06:40;;;;;;;0.00;0.00;;;3.00;99.90;;;;;;6162658;23;20462;-88
2023/01/17 03:09:25;;;;;;;;;;;;;;;;;;;;;
2023/01/17 03:12:04;;;;;;;;;;;;;;;;;;;;;
2023/01/17 03:14:36;;;;;;;0.00;0.00;;;3.10;99.90;;;;;;6162817;23;20017;-88
2023/01/17 03:17:30;;;;;;;0.00;0.00;;;3.00;99.90;;;;;;6112433;23;20024;-89
2023/01/17 03:20:15;;;;;;;;;;;;;;;;;;;;;
2023/01/17 03:22:51;;;;;;;0.00;0.00;;;2.90;99.90;;;;;;6140405;23;20339;-88
2023/01/17 03:25:56;;;;;;;;;;;;;;;;;;;;;
2023/01/17 03:28:27;;;;;;;0.00;0.00;;;3.20;99.90;;;;;;6162232;23;20448;-89
2023/01/17 03:31:21;;;;;;;0.00;0.00;;;3.00;99.90;;;;;;6115437;23;20017;-89
2023/01/17 03:34:16;;;;;;;0.00;0.00;;;3.10;99.90;;;;;;6163043;23;20055;-88
2023/01/17 03:39:48;;;;;;;0.00;0.00;;;3.80;99.90;;;;;;6142319;23;20304;-88
2023/01/17 03:42:58;;;;;;;0.00;0.00;;;3.50;99.90;;;;;;6162571;23;20017;-88
2023/01/17 03:45:41;;;;;;;;;;;;;;;;;;;;;
2023/01/17 03:48:49;;;;;;;;;;;;;;;;;;;;;
2023/01/17 03:51:42;;;;;;;;;;;;;;;;;;;;;
2023/01/17 03:57:26;;;;;;;0.00;0.00;;;3.00;99.90;;;;;;6162483;23;20080;-89
2023/01/17 03:59:54;;;;;;;0.00;0.00;;;3.00;99.90;;;;;;6137913;23;20092;-89
2023/01/17 04:02:31;;;;;;;0.00;0.00;;;2.90;99.90;;;;;;6138639;23;20021;-89
2023/01/17 04:05:13;;;;;;;;;;;;;;;;;;;;;
2023/01/17 04:07:52;;;;;;;;;;;;;;;;;;;;;
2023/01/17 04:10:30;;;;;;;0.00;0.00;;;2.90;99.90;;;;;;6161235;23;20017;-88
2023/01/17 04:13:19;;;;;;;0.00;0.00;;;2.90;99.90;;;;;;6113907;23;20021;-88
2023/01/17 04:15:58;;;;;;;0.00;0.00;;;2.80;99.90;;;;;;6117870;23;20395;-89
2023/01/17 04:18:57;;;;;;;;;;;;;;;;;;;;;
2023/01/17 04:21:38;;;;;;;;;;;;;;;;;;;;;
2023/01/17 04:24:07;;;;;;;0.00;0.00;;;2.70;99.90;;;;;;6117047;23;20028;-89
2023/01/17 04:29:37;;;;;;;;;;;;;;;;;;;;;
2023/01/17 04:32:08;;;;;;;0.00;0.00;;;2.60;99.90;;;;;;6138532;23;20031;-89
2023/01/17 04:35:13;;;;;;;;;;;;;;;;;;;;;
2023/01/17 04:38:11;;;;;;;0.00;0.00;;;3.20;99.90;;;;;;6161508;23;20024;-89
2023/01/17 04:40:45;;;;;;;0.00;0.00;;;2.50;99.90;;;;;;6157767;23;20240;-89
2023/01/17 04:43:27;;;;;;;0.00;0.00;;;2.50;99.90;;;;;;6092916;23;20025;-89
2023/01/17 04:46:32;;;;;;;0.00;0.00;;;2.30;99.90;;;;;;6139010;23;20028;-89
2023/01/17 04:52:22;;;;;;;;;;;;;;;;;;;;;
2023/01/17 04:55:47;;;;;;;;;;;;;;;;;;;;;
2023/01/17 04:58:33;;;;;;;0.00;0.00;;;2.40;99.90;;;;;;6161729;23;20470;-88
2023/01/17 05:01:17;;;;;;;;;;;;;;;;;;;;;
2023/01/17 05:04:11;;;;;;;0.00;0.00;;;2.30;99.90;;;;;;6165033;23;20013;-88
2023/01/17 05:07:12;;;;;;;;;;;;;;;;;;;;;
2023/01/17 05:10:03;;;;;;;0.00;0.00;;;2.40;99.90;;;;;;6156212;23;20064;-89
2023/01/17 05:12:53;;;;;;;0.00;0.00;;;2.90;99.90;;;;;;6135202;23;20452;-89
2023/01/17 05:16:08;;;;;;;0.00;0.00;;;2.40;99.90;;;;;;6172669;23;20033;-89
2023/01/17 05:19:03;;;;;;;;;;;;;;;;;;;;;
2023/01/17 05:21:40;;;;;;;0.00;0.00;;;2.10;99.90;;;;;;6141283;23;20017;-89
2023/01/17 05:24:35;;;;;;;0.00;0.00;;;2.60;99.90;;;;;;6137494;23;20021;-89
2023/01/17 05:27:10;;;;;;;0.00;0.00;;;2.00;99.90;;;;;;6097920;23;20039;-89
2023/01/17 05:30:08;;;;;;;;;;;;;;;;;;;;;
2023/01/17 05:32:46;;;;;;;0.00;0.00;;;2.40;99.90;;;;;;6161750;23;20013;-89
2023/01/17 05:36:03;;;;;;;;;;;;;;;;;;;;;
2023/01/17 05:38:46;;;;;;;;;;;;;;;;;;;;;
2023/01/17 05:41:14;;;;;;;0.00;0.00;;;2.30;99.90;;;;;;6161382;23;20017;-89
2023/01/17 05:43:43;;;;;;;0.00;0.00;;;1.90;99.90;;;;;;6112191;23;20039;-89
2023/01/17 05:46:29;;;;;;;0.00;0.00;;;1.90;99.90;;;;;;6137025;23;20021;-88
2023/01/17 05:49:10;;;;;;;0.00;0.00;;;1.90;99.90;;;;;;6115985;23;20384;-89
2023/01/17 05:52:10;;;;;;;0.00;0.00;;;2.60;99.90;;;;;;6164003;23;20021;-89
2023/01/17 05:58:43;;;;;;;0.00;0.00;;;1.80;99.90;;;;;;6139721;23;20104;-89
2023/01/17 06:01:29;;;;;;;0.00;0.00;;;2.50;99.90;;;;;;6159973;23;20447;-90
2023/01/17 06:07:15;;;;;;;;;;;;;;;;;;;;;
2023/01/17 06:13:23;;;;;;;0.00;0.00;;;1.80;99.90;;;;;;6160280;23;20017;-89
2023/01/17 06:16:21;;;;;;;0.00;0.00;;;1.70;99.90;;;;;;6114521;23;20021;-89
2023/01/17 06:22:43;;;;;;;0.00;0.00;;;2.60;99.90;;;;;;6132049;23;20076;-89
2023/01/17 06:25:42;;;;;;;;;;;;;;;;;;;;;
2023/01/17 06:29:01;;;;;;;0.00;0.00;;;1.60;99.90;;;;;;6160922;23;20064;-89
2023/01/17 06:31:56;;;;;;;0.00;0.00;;;1.80;99.90;;;;;;6154268;23;20101;-90
2023/01/17 06:34:42;;;;;;;;;;;2.30;99.90;;;;;;6161902;23;20007;-90
2023/01/17 06:37:28;;;;;;;;;;;;;;;;;;;;;
2023/01/17 06:43:33;;;;;;;0.00;0.00;;;1.60;99.90;;;;;;6147316;23;20027;-89
2023/01/17 06:46:07;;;;;;;0.00;0.00;;;2.10;99.90;;;;;;6125708;23;20490;-90
2023/01/17 06:49:15;;;;;;;;;;;;;;;;;;;;;
2023/01/17 06:52:04;;;;;;;;;;;;;;;;;;;;;
2023/01/17 06:58:06;;;;;;;0.00;0.00;;;2.30;99.90;;;;;;6161777;23;20028;-90
2023/01/17 07:00:55;;;;;;;0.00;0.00;;;2.20;99.90;;;;;;6136707;23;20021;-90
2023/01/17 07:03:54;;;;;;;;;;;;;;;;;;;;;
2023/01/17 07:06:32;;;;;;;0.00;0.00;;;2.00;99.90;;;;;;6141766;23;20021;-90
2023/01/17 07:12:08;;;;;;;;;;;;;;;;;;;;;
2023/01/17 07:15:02;;;;;;;0.40;0.20;;;2.40;99.90;;;;;;6118439;23;20463;-91
2023/01/17 07:17:52;;;;;;;0.10;0.10;;;1.60;99.90;;;;;;6141206;23;20028;-90
2023/01/17 07:20:36;;;;;;;;;;;;;;;;;;;;;
2023/01/17 07:23:33;;;;;;;0.00;0.00;;;1.60;99.90;;;;;;6139257;23;20017;-90
2023/01/17 07:26:24;;;;;;;0.00;0.00;;;1.60;99.90;;;;;;6163687;23;20021;-91
2023/01/17 07:29:24;;;;;;;0.10;0.10;;;2.20;99.90;;;;;;6120193;23;20083;-89
2023/01/17 07:32:14;;;;;;;;;;;;;;;;;;;;;
2023/01/17 07:34:58;;;;;;;;;;;;;;;;;;;;;
2023/01/17 07:37:44;;;;;;;;;;;;;;;;;;;;;
2023/01/17 07:40:21;;;;;;;0.00;0.00;;;1.50;99.90;;;;;;6163514;23;20013;-89
2023/01/17 07:43:17;;;;;;;0.00;0.00;;;1.50;99.90;;;;;;6139032;23;20059;-89
2023/01/17 07:46:14;;;;;;;0.00;0.00;;;2.00;99.90;;;;;;6138959;23;20079;-89
2023/01/17 07:49:05;;;;;;;0.20;0.20;;;1.50;99.90;;;;;;6138829;23;20087;-89
2023/01/17 07:51:43;;;;;;;0.08;0.08;;;2.10;99.90;;;;;;6142496;23;20017;-88
2023/01/17 07:54:24;;;;;;;0.00;0.00;;;1.50;99.90;;;;;;6161916;23;20039;-87
2023/01/17 07:57:13;;;;;;;;;;;;;;;;;;;;;
2023/01/17 08:00:27;;;;;;;;;;;;;;;;;;;;;
2023/01/17 08:03:12;;;;;;;0.00;0.00;;;1.60;99.90;;;;;;6162795;23;20017;-91
2023/01/17 08:09:33;;;;;;;;;;;;;;;;;;;;;
2023/01/17 08:12:14;;;;;;;0.00;0.00;;;1.70;99.90;;;;;;6160502;23;20024;-92
2023/01/17 08:14:50;;;;;;;;;;;;;;;;;;;;;
2023/01/17 08:17:52;;;;;;;0.00;0.00;;;2.50;99.90;;;;;;6162406;23;20025;-92
2023/01/17 08:21:09;;;;;;;;;;;;;;;;;;;;;
2023/01/17 08:24:08;;;;;;;;;;;;;;;;;;;;;
2023/01/17 08:26:48;;;;;;;0.00;0.00;;;1.50;99.90;;;;;;6113590;23;20021;-92
2023/01/17 08:29:35;;;;;;;0.00;0.00;;;1.60;99.90;;;;;;6132280;23;20097;-92
2023/01/17 08:32:40;;;;;;;;;;;;;;;;;;;;;
2023/01/17 08:35:47;;;;;;;1.10;0.20;;;1.80;99.90;;;;;;6131962;23;20017;-92
2023/01/17 08:42:16;;;;;;;0.00;0.00;;;1.90;99.90;;;;;;6159338;23;20009;-90
2023/01/17 08:45:17;;;;;;;;;;;;;;;;;;;;;
2023/01/17 08:48:19;;;;;;;;;;;;;;;;;;;;;
2023/01/17 08:50:56;;;;;;;0.00;0.00;;;2.10;99.90;;;;;;6110645;23;20056;-90
2023/01/17 08:56:56;;;;;;;;;;;;;;;;;;;;;
2023/01/17 09:03:06;;;;;;;0.00;0.00;;;5.70;99.90;;;;;;6116914;23;20021;-90
2023/01/17 09:06:21;;;;;;;0.00;0.00;;;6.50;99.90;;;;;;6098588;23;20021;-90
2023/01/17 09:09:05;;;;;;;;;;;;;;;;;;;;;
2023/01/17 09:11:56;;;;;;;;;;;;;;;;;;;;;
2023/01/17 09:15:06;;;;;;;;;;;;;;;;;;;;;
2023/01/17 09:20:46;;;;;;;0.00;0.00;;;9.00;99.90;;;;;;6091653;23;20021;-90
2023/01/17 09:23:38;;;;;;;0.00;0.00;;;9.60;99.90;;;;;;6087377;23;20017;-90
2023/01/17 09:26:58;;;;;;;;;;;;;;;;;;;;;
2023/01/17 09:29:52;;;;;;;0.15;0.00;;;10.40;93.90;;;;;;6129452;23;20060;-91
2023/01/17 09:32:40;;;;;;;0.00;0.00;;;10.90;93.60;;;;;;6107844;23;20021;-89
2023/01/17 09:35:12;;;;;;;0.00;0.00;;;11.00;91.80;;;;;;6084853;23;20018;-89
2023/01/17 09:37:52;;;;;;;0.00;0.00;;;11.30;93.10;;;;;;6130082;23;20389;-90
2023/01/17 09:40:56;;;;;;;;;;;;;;;;;;;;;
2023/01/17 09:43:34;;;;;;;;;;;;;;;;;;;;;
2023/01/17 09:50:14;;;;;;;0.00;0.00;;;12.20;99.90;;;;;;6121779;23;20025;-89
2023/01/17 09:53:06;;;;;;;0.10;0.10;;;12.40;99.90;;;;;;6048425;23;20360;-89
2023/01/17 09:55:52;;;;;;;;;;;;;;;;;;;;;
2023/01/17 09:58:22;;;;;;;0.43;0.35;;;12.80;96.30;;;;;;6158193;23;20005;-87
2023/01/17 10:01:11;;;;;;;0.00;0.00;;;12.80;97.00;;;;;;6115675;23;20428;-87
2023/01/17 10:04:29;;;;;;;0.00;0.00;;;13.00;99.20;;;;;;6107775;23;20020;-88
2023/01/17 10:07:37;;;;;;;0.00;0.00;;;13.00;96.30;;;;;;6107294;23;20021;-89
2023/01/17 10:11:00;;;;;;;8.27;0.80;;;12.90;96.80;;;;;;6107460;23;20444;-88
2023/01/17 10:14:46;;;;;;;0.00;0.00;;;12.80;96.20;;;;;;6074283;23;20022;-89
2023/01/17 10:17:38;;;;;;;;;;;;;;;;;;;;;
2023/01/17 10:20:39;;;;;;;0.25;0.00;;;12.60;95.90;;;;;;6131230;23;20456;-89
2023/01/17 10:23:43;;;;;;;;;;;;;;;;;;;;;
2023/01/17 10:32:43;;;;;;;;;;;;;;;;;;;;;
2023/01/17 10:35:31;;;;;;;0.00;0.00;;;12.90;93.60;;;;;;6156293;23;20017;-89
2023/01/17 10:38:47;;;;;;;0.00;0.00;;;12.70;94.50;;;;;;6131905;23;20056;-88
2023/01/17 10:42:04;;;;;;;0.00;0.00;;;12.50;95.60;;;;;;6155712;23;20026;-88
2023/01/17 10:44:41;;;;;;;0.00;0.00;;;12.50;94.40;;;;;;6104234;23;20067;-89
2023/01/17 10:47:30;;;;;;;0.00;0.00;;;12.10;95.70;;;;;;6132974;23;20028;-88
2023/01/17 10:50:21;;;;;;;0.13;0.13;;;12.00;95.60;;;;;;6131681;23;20029;-88
2023/01/17 10:53:19;;;;;;;;;;;;;;;;;;;;;
2023/01/17 10:56:06;;;;;;;;;;;;;;;;;;;;;
2023/01/17 11:02:28;;;;;;;0.00;0.00;;;11.70;96.90;;;;;;6158412;23;20471;-89
2023/01/17 11:05:31;;;;;;;0.20;0.00;;;11.90;96.70;;;;;;6133177;23;20345;-88
2023/01/17 11:08:26;;;;;;;0.08;0.08;;;12.30;96.30;;;;;;6133650;23;20021;-88
2023/01/17 11:14:05;;;;;;;0.03;0.00;;;12.60;94.50;;;;;;6147815;23;20022;-88
2023/01/17 11:16:59;;;;;;;0.00;0.00;;;12.40;93.30;;;;;;6111934;23;20017;-88
2023/01/17 11:19:50;;;;;;;0.00;0.00;;;12.50;93.20;;;;;;6124149;23;20391;-88
2023/01/17 11:25:36;;;;;;;0.00;0.00;;;13.20;91.90;;;;;;6162094;23;20428;-88
2023/01/17 11:28:25;;;;;;;0.00;0.00;;;13.10;92.40;;;;;;6138204;23;20021;-88
2023/01/17 11:34:31;;;;;;;;;;;;;;;;;;;;;
2023/01/17 11:37:47;;;;;;;2.72;0.55;;;13.30;91.50;;;;;;6161685;23;20020;-87
2023/01/17 11:40:31;;;;;;;0.00;0.00;;;13.20;92.20;;;;;;5995366;23;20019;-87
2023/01/17 11:43:17;;;;;;;0.00;0.00;;;12.90;90.50;;;;;;6162436;23;20021;-88
2023/01/17 11:46:03;;;;;;;0.00;0.00;;;12.40;91.70;;;;;;6137918;23;20049;-88
2023/01/17 11:48:56;;;;;;;1.17;1.17;;;12.30;93.80;;;;;;6162486;23;20444;-88
2023/01/17 11:51:43;;;;;;;0.00;0.00;;;12.20;92.00;;;;;;6138350;23;20017;-89
2023/01/17 11:54:37;;;;;;;0.00;0.00;;;12.30;91.90;;;;;;6162614;23;20108;-88
2023/01/17 11:57:22;;;;;;;0.00;0.00;;;12.30;92.60;;;;;;6138393;23;20105;-88
2023/01/17 12:00:20;;;;;;;0.00;0.00;;;12.30;92.50;;;;;;6137873;23;20024;-88
2023/01/17 12:03:12;;;;;;;0.17;0.13;;;12.30;92.70;;;;;;6119030;23;20411;-88
2023/01/17 12:06:00;;;;;;;;;;;;;;;;;;;;;
2023/01/17 12:09:11;;;;;;;0.00;0.00;;;12.10;92.80;;;;;;6161683;23;20280;-88
2023/01/17 12:18:29;;;;;;;;;;;;;;;;;;;;;
2023/01/17 12:21:32;;;;;;;;;;;;;;;;;;;;;
2023/01/17 12:24:49;;;;;;;;;;;;;;;;;;;;;
2023/01/17 12:28:08;;;;;;;;;;;;;;;;;;;;;
2023/01/17 12:30:57;;;;;;;0.00;0.00;;;12.00;92.10;;;;;;6149481;23;20013;-88
2023/01/17 12:33:49;;;;;;;0.00;0.00;;;11.70;92.10;;;;;;6136943;23;20339;-87
2023/01/17 12:36:29;;;;;;;0.00;0.00;;;11.70;92.50;;;;;;6137406;23;20032;-87
2023/01/17 12:39:20;;;;;;;;;;;;;;;;;;;;;
2023/01/17 12:42:58;;;;;;;;;;;;;;;;;;;;;
2023/01/17 12:46:15;;;;;;;0.00;0.00;;;11.10;93.80;;;;;;6187727;23;20341;-88
2023/01/17 12:52:23;;;;;;;0.95;0.38;;;10.40;93.90;;;;;;6152281;23;20052;-88
2023/01/17 12:55:06;;;;;;;1.08;0.30;;;10.10;96.10;;;;;;6136890;23;20013;-88
2023/01/17 12:57:58;;;;;;;;;;;;;;;;;;;;;
2023/01/17 13:01:01;;;;;;;0.00;0.00;;;9.70;98.20;;;;;;6161736;23;20024;-88
2023/01/17 13:06:46;;;;;;;;;;;9.30;99.70;;;;;;6146813;23;20025;-89
2023/01/17 13:09:16;;;;;;;0.00;0.00;;;9.20;99.90;;;;;;6161392;23;19923;-88
2023/01/17 13:11:57;;;;;;;0.00;0.00;;;8.90;99.90;;;;;;6137558;23;20021;-88
2023/01/17 13:18:05;;;;;;;0.00;0.00;;;8.50;99.90;;;;;;6159632;23;20017;-88
2023/01/17 13:20:55;;;;;;;0.00;0.00;;;8.40;99.90;;;;;;6129252;23;20460;-88
2023/01/17 13:23:47;;;;;;;0.00;0.00;;;8.20;99.90;;;;;;6137390;23;20066;-87
2023/01/17 13:26:51;;;;;;;;;;;;;;;;;;;;;
2023/01/17 13:29:29;;;;;;;0.00;0.00;;;7.90;99.90;;;;;;6156456;23;20018;-87
2023/01/17 13:32:23;;;;;;;;;;;;;;;;;;;;;
2023/01/17 13:35:01;;;;;;;0.52;0.00;;;7.60;99.90;;;;;;6156635;23;20022;-87
2023/01/17 13:38:06;;;;;;;;;;;;;;;;;;;;;
2023/01/17 13:41:02;;;;;;;0.00;0.00;;;7.40;99.90;;;;;;6148044;23;20459;-87
2023/01/17 13:43:41;;;;;;;;;;;7.30;99.90;;;;;;6132291;23;20021;-87
2023/01/17 13:46:27;;;;;;;0.20;0.08;;;7.30;99.90;;;;;;6131779;23;19923;-87
2023/01/17 13:49:40;;;;;;;;;;;;;;;;;;;;;
2023/01/17 13:52:23;;;;;;;;;;;;;;;;;;;;;
2023/01/17 13:55:19;;;;;;;0.00;0.00;;;7.10;99.90;;;;;;6156449;23;20343;-87
2023/01/17 13:57:55;;;;;;;;;;;;;;;;;;;;;
2023/01/17 14:00:31;;;;;;;;;;;;;;;;;;;;;
2023/01/17 14:03:12;;;;;;;0.00;0.00;;;6.90;99.90;;;;;;6155714;23;20017;-87
2023/01/17 14:05:43;;;;;;;0.00;0.00;;;6.80;99.90;;;;;;6109410;23;20048;-88
2023/01/17 14:08:30;;;;;;;0.77;0.20;;;6.80;99.90;;;;;;6132216;23;20021;-87
2023/01/17 14:11:11;;;;;;;0.00;0.00;;;6.70;99.90;;;;;;6109229;23;20053;-87
2023/01/17 14:13:54;;;;;;;;;;;;;;;;;;;;;
2023/01/17 14:16:41;;;;;;;0.00;0.00;;;6.60;99.90;;;;;;6157034;23;20017;-87
2023/01/17 14:19:42;;;;;;;0.00;0.00;;;6.50;99.90;;;;;;6132214;23;20017;-87
2023/01/17 14:22:47;;;;;;;;;;;;;;;;;;;;;
2023/01/17 14:25:47;;;;;;;0.00;0.00;;;6.40;99.90;;;;;;6154441;23;20462;-87
2023/01/17 14:28:28;;;;;;;0.00;0.00;;;6.30;99.90;;;;;;6131640;23;20072;-88
2023/01/17 14:31:29;;;;;;;;;;;;;;;;;;;;;
2023/01/17 14:34:25;;;;;;;0.00;0.00;;;6.10;99.90;;;;;;6156112;23;20025;-87
2023/01/17 14:37:30;;;;;;;;;;;;;;;;;;;;;
2023/01/17 14:40:15;;;;;;;0.00;0.00;;;5.80;99.90;;;;;;6158818;23;20068;-87
2023/01/17 14:43:05;;;;;;;2.15;0.20;;;5.70;99.90;;;;;;6133905;23;20017;-88
2023/01/17 14:45:41;;;;;;;0.00;0.00;;;5.70;99.90;;;;;;6133496;23;20024;-87
2023/01/17 14:48:31;;;;;;;;;;;;;;;;;;;;;
2023/01/17 14:51:37;;;;;;;0.00;0.00;;;5.60;99.90;;;;;;6158542;23;20017;-88
2023/01/17 14:54:32;;;;;;;0.00;0.00;;;5.60;99.90;;;;;;6129488;23;20109;-87
2023/01/17 14:57:29;;;;;;;0.00;0.00;;;5.50;99.90;;;;;;6134105;23;20097;-88
2023/01/17 15:00:47;;;;;;;;;;;;;;;;;;;;;
2023/01/17 15:03:47;;;;;;;0.00;0.00;;;5.30;99.90;;;;;;6131331;23;20049;-88
2023/01/17 15:06:25;;;;;;;0.00;0.00;;;5.20;99.90;;;;;;6171629;23;20013;-89
2023/01/17 15:09:18;;;;;;;0.00;0.00;;;5.20;99.90;;;;;;6153369;23;20022;-88
2023/01/17 15:14:57;;;;;;;;;;;;;;;;;;;;;
2023/01/17 15:17:26;;;;;;;0.00;0.00;;;5.10;99.90;;;;;;6135686;23;20065;-88
2023/01/17 15:20:12;;;;;;;;;;;;;;;;;;;;;
2023/01/17 15:23:14;;;;;;;0.00;0.00;;;4.90;99.90;;;;;;6158278;23;20021;-88
2023/01/17 15:25:59;;;;;;;0.00;0.00;;;4.90;99.90;;;;;;6113187;23;20050;-88
2023/01/17 15:28:43;;;;;;;0.00;0.00;;;4.80;99.90;;;;;;6110655;23;20363;-88
2023/01/17 15:31:38;;;;;;;0.00;0.00;;;4.90;99.90;;;;;;6133698;23;20092;-88
2023/01/17 15:34:26;;;;;;;;;;;;;;;;;;;;;
2023/01/17 15:37:40;;;;;;;0.00;0.00;;;4.70;99.90;;;;;;6158169;23;20014;-87
2023/01/17 15:40:23;;;;;;;0.00;0.00;;;4.60;99.90;;;;;;6112402;23;20479;-88
2023/01/17 15:43:22;;;;;;;0.00;0.00;;;4.60;99.90;;;;;;6133542;23;20017;-88
2023/01/17 15:49:22;;;;;;;0.00;0.00;;;4.40;99.90;;;;;;6140538;23;20033;-88
2023/01/17 15:52:01;;;;;;;0.00;0.00;;;4.40;99.90;;;;;;6132605;23;20021;-87
2023/01/17 15:55:02;;;;;;;0.00;0.00;;;4.30;99.90;;;;;;6109411;23;20021;-87
2023/01/17 15:57:39;;;;;;;0.00;0.00;;;4.30;96.60;;;;;;6132833;23;20340;-88
2023/01/17 16:00:31;;;;;;;0.00;0.00;;;4.20;1.00;;;;;;6157870;23;20096;-87
2023/01/17 16:03:14;;;;;;;0.00;0.00;;;4.70;1.00;;;;;;6134222;23;20148;-87
2023/01/17 16:05:42;;;;;;;0.00;0.00;;;4.10;1.00;;;;;;6132795;23;20337;-87
2023/01/17 16:08:17;;;;;;;0.00;0.00;;;4.00;1.00;;;;;;6157408;23;20013;-88
2023/01/17 16:11:04;;;;;;;;;;;4.00;1.00;;;;;;6158015;23;20499;-87
2023/01/17 16:20:05;;;;;;;;;;;;;;;;;;;;;
2023/01/17 16:22:53;;;;;;;0.00;0.00;;;4.00;9.30;;;;;;6157226;23;20019;-87
2023/01/17 16:25:24;;;;;;;0.00;0.00;;;3.70;11.90;;;;;;6132405;23;20109;-89
2023/01/17 16:28:02;;;;;;;0.00;0.00;;;3.60;15.80;;;;;;6134066;23;20466;-87
2023/01/17 16:30:47;;;;;;;3.92;0.30;;;3.60;19.80;;;;;;6133248;23;20084;-87
2023/01/17 16:33:38;;;;;;;0.00;0.00;;;4.10;20.30;;;;;;6132770;23;20025;-86
2023/01/17 16:36:20;;;;;;;0.00;0.00;;;3.50;18.60;;;;;;6103560;23;20040;-86
2023/01/17 16:39:00;;;;;;;;;;;;;;;;;;;;;
2023/01/17 16:41:56;;;;;;;;;;;;;;;;;;;;;
2023/01/17 16:44:40;;;;;;;0.00;0.00;;;3.80;21.80;;;;;;6156192;23;20017;-87
2023/01/17 16:47:11;;;;;;;0.00;0.00;;;3.40;20.40;;;;;;6132964;23;20017;-88
2023/01/17 16:49:52;;;;;;;0.00;0.00;;;3.40;22.00;;;;;;6133287;23;20052;-88
2023/01/17 16:52:23;;;;;;;0.00;0.00;;;3.50;22.20;;;;;;6112444;23;20053;-87
2023/01/17 16:54:56;;;;;;;0.08;0.00;;;3.40;23.30;;;;;;6132544;23;20013;-87
2023/01/17 16:57:26;;;;;;;4.07;0.80;;;3.50;23.50;;;;;;6133955;23;20017;-87
2023/01/17 16:59:55;;;;;;;0.00;0.00;;;3.20;22.90;;;;;;6085395;23;20017;-88
2023/01/17 17:02:45;;;;;;;;;;;;;;;;;;;;;
2023/01/17 17:05:20;;;;;;;5.63;0.28;;;3.00;26.00;;;;;;6133947;23;20017;-87
2023/01/17 17:07:56;;;;;;;;;;;3.80;25.80;;;;;;6133380;23;20053;-88
2023/01/17 17:10:32;;;;;;;0.30;0.30;;;3.00;25.30;;;;;;6132269;23;19923;-87
2023/01/17 17:13:05;;;;;;;0.00;0.00;;;2.90;24.80;;;;;;6132412;23;20021;-87
2023/01/17 17:15:46;;;;;;;0.85;0.15;;;3.00;26.50;;;;;;6156722;23;20021;-88
2023/01/17 17:18:20;;;;;;;7.68;0.00;;;3.00;29.60;;;;;;6132134;23;20091;-87
2023/01/17 17:21:07;;;;;;;4.07;0.65;;;2.90;28.10;;;;;;6131342;23;20032;-87
2023/01/17 17:23:49;;;;;;;0.00;0.00;;;3.40;27.60;;;;;;6112763;23;20026;-88
2023/01/17 17:26:48;;;;;;;;;;;;;;;;;;;;;
2023/01/17 17:29:40;;;;;;;3.92;0.10;;;2.80;27.60;;;;;;6157588;23;20056;-87
2023/01/17 17:32:13;;;;;;;0.00;0.00;;;3.10;27.40;;;;;;6155480;23;20456;-88
2023/01/17 17:34:51;;;;;;;0.13;0.00;;;2.60;28.40;;;;;;6132013;23;20013;-88
2023/01/17 17:37:21;;;;;;;0.00;0.00;;;2.70;27.80;;;;;;6109256;23;20022;-88
2023/01/17 17:39:52;;;;;;;0.00;0.00;;;2.80;28.80;;;;;;6157009;23;20017;-88
2023/01/17 17:42:21;;;;;;;0.00;0.00;;;3.30;28.80;;;;;;6132026;23;20136;-88
2023/01/17 17:44:54;;;;;;;0.00;0.00;;;2.60;28.30;;;;;;6131150;23;20453;-89
2023/01/17 17:50:35;;;;;;;0.20;0.05;;;2.50;30.20;;;;;;6145460;23;20010;-88
2023/01/17 17:53:11;;;;;;;0.05;0.00;;;2.50;32.70;;;;;;6135125;23;20024;-87
2023/01/17 17:55:52;;;;;;;;;;;;;;;;;;;;;
2023/01/17 17:58:41;;;;;;;0.00;0.00;;;3.40;35.30;;;;;;6134118;23;20024;-88
2023/01/17 18:01:12;;;;;;;0.10;0.10;;;2.40;36.50;;;;;;6156336;23;20014;-88
2023/01/17 18:03:51;;;;;;;0.00;0.00;;;2.40;37.80;;;;;;6108753;23;20372;-88
2023/01/17 18:07:03;;;;;;;0.10;0.10;;;2.30;38.40;;;;;;6132675;23;20060;-87
2023/01/17 18:10:11;;;;;;;;;;;;;;;;;;;;;
2023/01/17 18:12:51;;;;;;;0.30;0.30;;;2.50;40.00;;;;;;6155096;23;20021;-88
2023/01/17 18:15:35;;;;;;;0.08;0.03;;;2.20;41.10;;;;;;6136239;23;20310;-87
2023/01/17 18:18:07;;;;;;;0.25;0.05;;;2.20;41.20;;;;;;6140244;23;20018;-87
2023/01/17 18:20:58;;;;;;;0.00;0.00;;;2.10;44.00;;;;;;6115772;23;20025;-87
2023/01/17 18:23:57;;;;;;;0.00;0.00;;;2.30;45.10;;;;;;6137936;23;20021;-88
2023/01/17 18:27:10;;;;;;;0.00;0.00;;;2.10;43.60;;;;;;6137462;23;20029;-88
2023/01/17 18:29:39;;;;;;;0.10;0.10;;;2.10;45.90;;;;;;6133468;23;20017;-87
2023/01/17 18:32:19;;;;;;;2.53;1.10;;;2.00;45.80;;;;;;6113205;23;20390;-88
2023/01/17 18:35:14;;;;;;;0.00;0.00;;;2.30;47.30;;;;;;6160003;23;20025;-88
2023/01/17 18:38:00;;;;;;;;;;;;;;;;;;;;;
2023/01/17 18:40:38;;;;;;;;;;;;;;;;;;;;;
2023/01/17 18:43:34;;;;;;;0.00;0.00;;;2.00;46.70;;;;;;6134281;23;20014;-88
2023/01/17 18:46:20;;;;;;;;;;;1.90;47.10;;;;;;6132712;23;20013;-89
2023/01/17 18:48:50;;;;;;;0.28;0.28;;;2.10;47.60;;;;;;6132321;23;20274;-88
2023/01/17 18:51:45;;;;;;;;;;;;;;;;;;;;;
2023/01/17 18:54:11;;;;;;;0.25;0.25;;;1.90;49.40;;;;;;6156430;23;20060;-88
2023/01/17 18:57:00;;;;;;;0.00;0.00;;;1.80;51.10;;;;;;6131738;23;20064;-88
2023/01/17 18:59:43;;;;;;;0.00;0.00;;;2.00;52.00;;;;;;6155382;23;20049;-88
2023/01/17 19:02:22;;;;;;;;;;;;;;;;;;;;;
2023/01/17 19:05:04;;;;;;;0.00;0.00;;;1.80;52.70;;;;;;6155247;23;20021;-88
2023/01/17 19:08:00;;;;;;;0.10;0.00;;;1.70;53.40;;;;;;6131679;23;20515;-89
2023/01/17 19:11:06;;;;;;;0.00;0.00;;;1.60;55.40;;;;;;6132774;23;20104;-89
2023/01/17 19:13:47;;;;;;;;;;;;;;;;;;;;;
2023/01/17 19:16:26;;;;;;;0.13;0.13;;;2.40;56.70;;;;;;6156307;23;20098;-88
2023/01/17 19:19:02;;;;;;;0.00;0.00;;;2.40;57.00;;;;;;6132459;23;20017;-88
2023/01/17 19:21:38;;;;;;;0.00;0.00;;;2.10;56.80;;;;;;6158072;23;20018;-89
2023/01/17 19:27:09;;;;;;;;;;;;;;;;;;;;;
2023/01/17 19:36:22;;;;;;;;;;;;;;;;;;;;;
2023/01/17 19:39:16;;;;;;;;;;;;;;;;;;;;;
2023/01/17 19:57:25;;;;;;;;;;;;;;;;;;;;;
2023/01/17 20:00:17;;;;;;;;;;;;;;;;;;;;;
2023/01/17 20:03:11;;;;;;;0.00;0.00;;;1.40;64.10;;;;;;6134342;23;20025;-91
2023/01/17 20:05:44;;;;;;;1.25;0.43;;;1.30;63.70;;;;;;6160205;23;20056;-90
2023/01/17 20:08:39;;;;;;;;;;;;;;;;;;;;;
2023/01/17 20:11:27;;;;;;;0.25;0.25;;;1.30;66.50;;;;;;6112116;23;20017;-92
2023/01/17 20:14:28;;;;;;;;;;;;;;;;;;;;;
2023/01/17 20:17:27;;;;;;;;;;;;;;;;;;;;;
2023/01/17 20:20:23;;;;;;;0.00;0.00;;;1.30;66.30;;;;;;6133593;23;20519;-91
2023/01/17 20:23:05;;;;;;;0.08;0.08;;;1.20;66.70;;;;;;6115450;23;20028;-91
2023/01/17 20:26:06;;;;;;;0.00;0.00;;;1.20;69.00;;;;;;6117515;23;20444;-92
2023/01/17 20:29:08;;;;;;;0.05;0.05;;;1.30;69.80;;;;;;6161839;23;20033;-91
2023/01/17 20:31:50;;;;;;;;;;;;;;;;;;;;;
2023/01/17 20:34:19;;;;;;;0.05;0.00;;;1.10;69.60;;;;;;6181273;23;20032;-89
2023/01/17 20:37:07;;;;;;;0.17;0.08;;;1.70;70.30;;;;;;6134408;23;20080;-89
2023/01/17 20:40:09;;;;;;;;;;;;;;;;;;;;;
2023/01/17 20:42:52;;;;;;;0.00;0.00;;;1.60;72.90;;;;;;6140946;23;20020;-90
2023/01/17 20:45:29;;;;;;;0.00;0.00;;;1.70;73.90;;;;;;6111144;23;20053;-90
2023/01/17 20:48:29;;;;;;;;;;;;;;;;;;;;;
2023/01/17 20:51:21;;;;;;;4.43;2.05;;;1.10;77.50;;;;;;6139730;23;20049;-90
2023/01/17 20:53:55;;;;;;;0.00;0.00;;;1.00;81.70;;;;;;6132408;23;20105;-91
2023/01/17 20:56:34;;;;;;;;;;;;;;;;;;;;;
2023/01/17 20:59:08;;;;;;;1.00;0.13;;;1.10;76.20;;;;;;6157758;23;20461;-91